createdAt,value
2017-06-18T00:00:54.852Z,1026.03
2017-06-18T00:02:04.069Z,1026.05
2017-06-18T00:03:13.284Z,1026.03
2017-06-18T00:04:22.176Z,1026.01
2017-06-18T00:05:31.065Z,1026.03
2017-06-18T00:06:39.953Z,1026.02
2017-06-18T00:07:48.841Z,1026.06
2017-06-18T00:08:57.727Z,1026.05
2017-06-18T00:10:06.939Z,1026.06
2017-06-18T00:11:15.826Z,1026.03
2017-06-18T00:12:25.517Z,1026.09
2017-06-18T00:13:34.403Z,1026.04
2017-06-18T00:14:43.291Z,1025.99
2017-06-18T00:15:52.188Z,1026.02
2017-06-18T00:17:01.075Z,1025.97
2017-06-18T00:18:09.966Z,1026.03
2017-06-18T00:19:19.181Z,1025.99
2017-06-18T00:20:28.066Z,1026
2017-06-18T00:21:36.970Z,1026
2017-06-18T00:22:45.868Z,1025.98
2017-06-18T00:23:55.384Z,1025.99
2017-06-18T00:25:04.274Z,1025.99
2017-06-18T00:26:13.488Z,1025.97
2017-06-18T00:27:22.376Z,1025.97
2017-06-18T00:28:31.594Z,1025.96
2017-06-18T00:29:40.634Z,1025.96
2017-06-18T00:30:49.845Z,1025.95
2017-06-18T00:31:59.381Z,1025.96
2017-06-18T00:33:08.597Z,1025.99
2017-06-18T00:34:17.483Z,1025.99
2017-06-18T00:35:26.519Z,1026.01
2017-06-18T00:36:35.412Z,1026
2017-06-18T00:37:44.626Z,1025.96
2017-06-18T00:38:53.516Z,1026.01
2017-06-18T00:40:02.415Z,1026.03
2017-06-18T00:41:11.605Z,1025.99
2017-06-18T00:42:20.499Z,1026.05
2017-06-18T00:43:29.390Z,1026.03
2017-06-18T00:44:38.599Z,1026.07
2017-06-18T00:45:47.811Z,1026.08
2017-06-18T00:46:56.997Z,1026.07
2017-06-18T00:48:05.883Z,1026.13
2017-06-18T00:49:15.102Z,1026.12
2017-06-18T00:50:24.311Z,1026.11
2017-06-18T00:51:33.238Z,1026.12
2017-06-18T00:52:42.754Z,1026.1
2017-06-18T00:53:51.643Z,1026.1
2017-06-18T00:55:00.530Z,1026.06
2017-06-18T00:56:09.418Z,1026.02
2017-06-18T00:57:18.309Z,1026.03
2017-06-18T00:58:27.848Z,1026
2017-06-18T00:59:36.742Z,1025.94
2017-06-18T01:00:45.959Z,1025.94
2017-06-18T01:01:54.844Z,1025.89
2017-06-18T01:03:03.729Z,1025.88
2017-06-18T01:04:12.989Z,1025.85
2017-06-18T01:05:21.875Z,1025.85
2017-06-18T01:06:31.093Z,1025.88
2017-06-18T01:07:40.305Z,1025.88
2017-06-18T01:08:49.197Z,1025.9
2017-06-18T01:09:58.136Z,1025.89
2017-06-18T01:11:07.023Z,1025.9
2017-06-18T01:12:16.241Z,1025.87
2017-06-18T01:13:25.130Z,1025.86
2017-06-18T01:14:34.014Z,1025.89
2017-06-18T01:15:43.564Z,1025.88
2017-06-18T01:16:52.454Z,1025.89
2017-06-18T01:18:01.339Z,1025.89
2017-06-18T01:19:10.230Z,1025.89
2017-06-18T01:20:19.446Z,1025.88
2017-06-18T01:21:28.811Z,1025.87
2017-06-18T01:22:38.353Z,1025.9
2017-06-18T01:23:47.571Z,1025.91
2017-06-18T01:24:56.786Z,1025.92
2017-06-18T01:26:06.327Z,1025.95
2017-06-18T01:27:15.963Z,1025.94
2017-06-18T01:28:25.177Z,1025.97
2017-06-18T01:29:34.061Z,1025.99
2017-06-18T01:30:42.951Z,1025.99
2017-06-18T01:31:52.164Z,1025.95
2017-06-18T01:33:01.206Z,1025.98
2017-06-18T01:34:10.093Z,1025.97
2017-06-18T01:35:18.984Z,1025.98
2017-06-18T01:36:28.192Z,1026.02
2017-06-18T01:37:37.080Z,1025.98
2017-06-18T01:38:46.265Z,1026
2017-06-18T01:39:55.152Z,1025.98
2017-06-18T01:41:04.045Z,1025.96
2017-06-18T01:42:12.933Z,1025.93
2017-06-18T01:43:21.816Z,1025.94
2017-06-18T01:44:30.851Z,1025.9
2017-06-18T01:45:39.739Z,1025.86
2017-06-18T01:46:48.625Z,1025.8
2017-06-18T01:47:57.511Z,1025.83
2017-06-18T01:49:06.396Z,1025.81
2017-06-18T01:50:15.430Z,1025.81
2017-06-18T01:51:24.317Z,1025.85
2017-06-18T01:52:33.203Z,1025.79
2017-06-18T01:53:42.089Z,1025.83
2017-06-18T01:54:51.306Z,1025.83
2017-06-18T01:56:00.245Z,1025.82
2017-06-18T01:57:09.456Z,1025.82
2017-06-18T01:58:18.668Z,1025.79
2017-06-18T01:59:27.556Z,1025.84
2017-06-18T02:00:36.448Z,1025.79
2017-06-18T02:01:45.483Z,1025.79
2017-06-18T02:02:54.378Z,1025.82
2017-06-18T02:04:03.266Z,1025.78
2017-06-18T02:05:12.155Z,1025.72
2017-06-18T02:06:21.367Z,1025.74
2017-06-18T02:07:30.679Z,1025.7
2017-06-18T02:08:39.564Z,1025.7
2017-06-18T02:09:48.453Z,1025.73
2017-06-18T02:10:57.342Z,1025.66
2017-06-18T02:12:06.233Z,1025.67
2017-06-18T02:13:15.123Z,1025.68
2017-06-18T02:14:24.331Z,1025.67
2017-06-18T02:15:33.217Z,1025.7
2017-06-18T02:16:42.103Z,1025.67
2017-06-18T02:17:50.993Z,1025.69
2017-06-18T02:18:59.876Z,1025.68
2017-06-18T02:20:08.763Z,1025.7
2017-06-18T02:21:17.653Z,1025.68
2017-06-18T02:22:26.866Z,1025.65
2017-06-18T02:23:35.753Z,1025.68
2017-06-18T02:24:44.739Z,1025.65
2017-06-18T02:25:53.630Z,1025.67
2017-06-18T02:27:02.843Z,1025.68
2017-06-18T02:28:11.731Z,1025.63
2017-06-18T02:29:20.625Z,1025.65
2017-06-18T02:30:29.511Z,1025.64
2017-06-18T02:31:39.062Z,1025.66
2017-06-18T02:32:48.278Z,1025.6
2017-06-18T02:33:57.493Z,1025.64
2017-06-18T02:35:07.035Z,1025.61
2017-06-18T02:36:16.250Z,1025.6
2017-06-18T02:37:25.137Z,1025.57
2017-06-18T02:38:34.682Z,1025.6
2017-06-18T02:39:43.569Z,1025.63
2017-06-18T02:40:52.457Z,1025.64
2017-06-18T02:42:01.498Z,1025.66
2017-06-18T02:43:10.709Z,1025.66
2017-06-18T02:44:19.604Z,1025.69
2017-06-18T02:45:28.495Z,1025.68
2017-06-18T02:46:37.390Z,1025.64
2017-06-18T02:47:47.078Z,1025.6
2017-06-18T02:48:55.965Z,1025.63
2017-06-18T02:50:04.857Z,1025.63
2017-06-18T02:51:13.746Z,1025.7
2017-06-18T02:52:22.963Z,1025.74
2017-06-18T02:53:32.152Z,1025.73
2017-06-18T02:54:41.037Z,1025.78
2017-06-18T02:55:49.922Z,1025.79
2017-06-18T02:56:59.133Z,1025.78
2017-06-18T02:58:08.353Z,1025.77
2017-06-18T02:59:17.340Z,1025.8
2017-06-18T03:00:26.261Z,1025.82
2017-06-18T03:01:35.480Z,1025.8
2017-06-18T03:02:44.374Z,1025.82
2017-06-18T03:03:53.262Z,1025.84
2017-06-18T03:05:02.248Z,1025.83
2017-06-18T03:06:11.458Z,1025.83
2017-06-18T03:07:20.354Z,1025.86
2017-06-18T03:08:29.244Z,1025.83
2017-06-18T03:09:38.134Z,1025.86
2017-06-18T03:10:47.122Z,1025.86
2017-06-18T03:11:56.011Z,1025.83
2017-06-18T03:13:04.896Z,1025.83
2017-06-18T03:14:13.782Z,1025.84
2017-06-18T03:15:22.668Z,1025.84
2017-06-18T03:16:31.606Z,1025.82
2017-06-18T03:17:40.829Z,1025.84
2017-06-18T03:18:49.721Z,1025.82
2017-06-18T03:19:58.940Z,1025.83
2017-06-18T03:21:07.833Z,1025.86
2017-06-18T03:22:17.420Z,1025.88
2017-06-18T03:23:26.636Z,1025.9
2017-06-18T03:24:35.523Z,1025.94
2017-06-18T03:25:44.410Z,1025.93
2017-06-18T03:26:53.304Z,1025.89
2017-06-18T03:28:02.516Z,1025.93
2017-06-18T03:29:11.403Z,1025.93
2017-06-18T03:30:20.292Z,1025.9
2017-06-18T03:31:29.178Z,1025.94
2017-06-18T03:32:38.072Z,1025.95
2017-06-18T03:33:47.115Z,1025.98
2017-06-18T03:34:56.000Z,1025.95
2017-06-18T03:36:04.894Z,1025.97
2017-06-18T03:37:13.780Z,1025.95
2017-06-18T03:38:22.666Z,1025.94
2017-06-18T03:39:31.753Z,1025.94
2017-06-18T03:40:40.967Z,1025.91
2017-06-18T03:41:49.857Z,1025.92
2017-06-18T03:42:58.741Z,1025.92
2017-06-18T03:44:07.628Z,1025.93
2017-06-18T03:45:17.417Z,1025.92
2017-06-18T03:46:26.304Z,1025.93
2017-06-18T03:47:35.514Z,1025.95
2017-06-18T03:48:44.401Z,1025.99
2017-06-18T03:49:53.620Z,1026.01
2017-06-18T03:51:02.933Z,1026
2017-06-18T03:52:11.833Z,1026
2017-06-18T03:53:20.724Z,1026.02
2017-06-18T03:54:29.938Z,1026.01
2017-06-18T03:55:39.476Z,1026.02
2017-06-18T03:56:48.463Z,1026.01
2017-06-18T03:57:57.351Z,1026.04
2017-06-18T03:59:06.563Z,1026.05
2017-06-18T04:00:15.453Z,1025.99
2017-06-18T04:01:24.347Z,1026
2017-06-18T04:02:33.598Z,1025.95
2017-06-18T04:03:42.483Z,1025.98
2017-06-18T04:04:51.367Z,1026
2017-06-18T04:06:00.577Z,1025.99
2017-06-18T04:07:09.467Z,1026.02
2017-06-18T04:08:18.503Z,1026.07
2017-06-18T04:09:27.390Z,1026.08
2017-06-18T04:10:36.277Z,1026.11
2017-06-18T04:11:45.490Z,1026.11
2017-06-18T04:12:54.380Z,1026.11
2017-06-18T04:14:04.068Z,1026.13
2017-06-18T04:15:12.954Z,1026.06
2017-06-18T04:16:21.841Z,1026.13
2017-06-18T04:17:31.373Z,1026.12
2017-06-18T04:18:40.259Z,1026.14
2017-06-18T04:19:49.246Z,1026.13
2017-06-18T04:20:58.148Z,1026.16
2017-06-18T04:22:07.036Z,1026.17
2017-06-18T04:23:16.574Z,1026.13
2017-06-18T04:24:25.462Z,1026.18
2017-06-18T04:25:34.496Z,1026.14
2017-06-18T04:26:43.382Z,1026.13
2017-06-18T04:27:52.266Z,1026.15
2017-06-18T04:29:01.161Z,1026.13
2017-06-18T04:30:10.050Z,1026.12
2017-06-18T04:31:18.937Z,1026.12
2017-06-18T04:32:27.822Z,1026.1
2017-06-18T04:33:37.036Z,1026.13
2017-06-18T04:34:45.923Z,1026.14
2017-06-18T04:35:54.816Z,1026.15
2017-06-18T04:37:04.502Z,1026.13
2017-06-18T04:38:13.716Z,1026.13
2017-06-18T04:39:22.605Z,1026.1
2017-06-18T04:40:31.493Z,1026.12
2017-06-18T04:41:40.381Z,1026.1
2017-06-18T04:42:49.421Z,1026.06
2017-06-18T04:43:58.632Z,1026.1
2017-06-18T04:45:07.843Z,1026.12
2017-06-18T04:46:16.729Z,1026.12
2017-06-18T04:47:25.621Z,1026.07
2017-06-18T04:48:34.694Z,1026.09
2017-06-18T04:49:43.581Z,1026.06
2017-06-18T04:50:52.796Z,1026.07
2017-06-18T04:52:01.687Z,1026.13
2017-06-18T04:53:10.576Z,1026.1
2017-06-18T04:54:19.568Z,1026.11
2017-06-18T04:55:28.454Z,1026.14
2017-06-18T04:56:37.346Z,1026.1
2017-06-18T04:57:46.556Z,1026.09
2017-06-18T04:58:55.446Z,1026.14
2017-06-18T05:00:04.434Z,1026.15
2017-06-18T05:01:13.324Z,1026.19
2017-06-18T05:02:22.216Z,1026.17
2017-06-18T05:03:31.109Z,1026.22
2017-06-18T05:04:40.324Z,1026.25
2017-06-18T05:05:49.687Z,1026.23
2017-06-18T05:06:58.578Z,1026.24
2017-06-18T05:08:08.441Z,1026.2
2017-06-18T05:09:17.326Z,1026.23
2017-06-18T05:10:26.214Z,1026.24
2017-06-18T05:11:35.258Z,1026.19
2017-06-18T05:12:44.149Z,1026.22
2017-06-18T05:13:53.369Z,1026.23
2017-06-18T05:15:02.264Z,1026.23
2017-06-18T05:16:11.480Z,1026.2
2017-06-18T05:17:20.795Z,1026.22
2017-06-18T05:18:29.686Z,1026.19
2017-06-18T05:19:38.576Z,1026.21
2017-06-18T05:20:47.466Z,1026.21
2017-06-18T05:21:56.360Z,1026.19
2017-06-18T05:23:05.247Z,1026.22
2017-06-18T05:24:14.137Z,1026.27
2017-06-18T05:25:23.027Z,1026.23
2017-06-18T05:26:32.241Z,1026.29
2017-06-18T05:27:41.131Z,1026.31
2017-06-18T05:28:50.544Z,1026.3
2017-06-18T05:29:59.434Z,1026.3
2017-06-18T05:31:08.974Z,1026.31
2017-06-18T05:32:18.187Z,1026.3
2017-06-18T05:33:27.075Z,1026.34
2017-06-18T05:34:35.963Z,1026.33
2017-06-18T05:35:45.178Z,1026.33
2017-06-18T05:36:54.065Z,1026.31
2017-06-18T05:38:02.953Z,1026.31
2017-06-18T05:39:11.845Z,1026.3
2017-06-18T05:40:21.206Z,1026.29
2017-06-18T05:41:30.096Z,1026.25
2017-06-18T05:42:39.012Z,1026.3
2017-06-18T05:43:47.900Z,1026.28
2017-06-18T05:44:56.787Z,1026.32
2017-06-18T05:46:06.205Z,1026.28
2017-06-18T05:47:15.421Z,1026.3
2017-06-18T05:48:24.634Z,1026.28
2017-06-18T05:49:33.531Z,1026.31
2017-06-18T05:50:42.749Z,1026.3
2017-06-18T05:51:52.376Z,1026.33
2017-06-18T05:53:01.305Z,1026.33
2017-06-18T05:54:10.201Z,1026.31
2017-06-18T05:55:19.416Z,1026.34
2017-06-18T05:56:28.303Z,1026.38
2017-06-18T05:57:37.345Z,1026.42
2017-06-18T05:58:46.240Z,1026.39
2017-06-18T05:59:55.127Z,1026.41
2017-06-18T06:01:04.343Z,1026.4
2017-06-18T06:02:13.557Z,1026.38
2017-06-18T06:03:22.598Z,1026.39
2017-06-18T06:04:31.492Z,1026.36
2017-06-18T06:05:40.379Z,1026.38
2017-06-18T06:06:49.274Z,1026.36
2017-06-18T06:07:58.165Z,1026.4
2017-06-18T06:09:07.152Z,1026.44
2017-06-18T06:10:16.042Z,1026.49
2017-06-18T06:11:24.934Z,1026.46
2017-06-18T06:12:33.820Z,1026.46
2017-06-18T06:13:43.354Z,1026.47
2017-06-18T06:14:52.397Z,1026.48
2017-06-18T06:16:01.292Z,1026.44
2017-06-18T06:17:10.179Z,1026.45
2017-06-18T06:18:19.394Z,1026.48
2017-06-18T06:19:28.283Z,1026.48
2017-06-18T06:20:37.420Z,1026.44
2017-06-18T06:21:46.330Z,1026.5
2017-06-18T06:22:55.558Z,1026.5
2017-06-18T06:24:05.095Z,1026.5
2017-06-18T06:25:13.981Z,1026.52
2017-06-18T06:26:23.520Z,1026.49
2017-06-18T06:27:32.411Z,1026.49
2017-06-18T06:28:41.302Z,1026.5
2017-06-18T06:29:50.193Z,1026.49
2017-06-18T06:30:59.084Z,1026.52
2017-06-18T06:32:08.355Z,1026.56
2017-06-18T06:33:17.243Z,1026.6
2017-06-18T06:34:26.135Z,1026.59
2017-06-18T06:35:35.345Z,1026.61
2017-06-18T06:36:44.563Z,1026.62
2017-06-18T06:37:53.551Z,1026.63
2017-06-18T06:39:02.438Z,1026.62
2017-06-18T06:40:11.327Z,1026.65
2017-06-18T06:41:20.216Z,1026.62
2017-06-18T06:42:29.435Z,1026.63
2017-06-18T06:43:38.473Z,1026.64
2017-06-18T06:44:47.685Z,1026.64
2017-06-18T06:45:56.570Z,1026.67
2017-06-18T06:47:05.780Z,1026.67
2017-06-18T06:48:14.673Z,1026.66
2017-06-18T06:49:24.209Z,1026.68
2017-06-18T06:50:33.095Z,1026.68
2017-06-18T06:51:41.988Z,1026.67
2017-06-18T06:52:50.880Z,1026.7
2017-06-18T06:53:59.775Z,1026.71
2017-06-18T06:55:09.468Z,1026.67
2017-06-18T06:56:18.359Z,1026.66
2017-06-18T06:57:27.574Z,1026.68
2017-06-18T06:58:36.805Z,1026.67
2017-06-18T06:59:45.693Z,1026.69
2017-06-18T07:00:54.734Z,1026.69
2017-06-18T07:02:03.947Z,1026.68
2017-06-18T07:03:12.839Z,1026.71
2017-06-18T07:04:21.727Z,1026.7
2017-06-18T07:05:30.616Z,1026.68
2017-06-18T07:06:39.883Z,1026.75
2017-06-18T07:07:48.775Z,1026.7
2017-06-18T07:08:57.663Z,1026.68
2017-06-18T07:10:06.559Z,1026.72
2017-06-18T07:11:15.449Z,1026.69
2017-06-18T07:12:24.651Z,1026.74
2017-06-18T07:13:33.541Z,1026.73
2017-06-18T07:14:42.430Z,1026.74
2017-06-18T07:15:51.644Z,1026.75
2017-06-18T07:17:01.183Z,1026.76
2017-06-18T07:18:10.123Z,1026.73
2017-06-18T07:19:19.349Z,1026.78
2017-06-18T07:20:28.562Z,1026.77
2017-06-18T07:21:37.451Z,1026.77
2017-06-18T07:22:46.343Z,1026.8
2017-06-18T07:23:55.659Z,1026.77
2017-06-18T07:25:04.553Z,1026.78
2017-06-18T07:26:13.770Z,1026.79
2017-06-18T07:27:22.986Z,1026.8
2017-06-18T07:28:31.881Z,1026.8
2017-06-18T07:29:40.924Z,1026.81
2017-06-18T07:30:49.813Z,1026.75
2017-06-18T07:31:58.709Z,1026.8
2017-06-18T07:33:07.921Z,1026.77
2017-06-18T07:34:17.140Z,1026.73
2017-06-18T07:35:26.034Z,1026.75
2017-06-18T07:36:34.927Z,1026.77
2017-06-18T07:37:43.822Z,1026.79
2017-06-18T07:38:53.038Z,1026.8
2017-06-18T07:40:01.925Z,1026.84
2017-06-18T07:41:10.917Z,1026.83
2017-06-18T07:42:19.806Z,1026.79
2017-06-18T07:43:29.021Z,1026.8
2017-06-18T07:44:38.244Z,1026.78
2017-06-18T07:45:47.143Z,1026.78
2017-06-18T07:46:56.458Z,1026.77
2017-06-18T07:48:05.677Z,1026.77
2017-06-18T07:49:14.566Z,1026.77
2017-06-18T07:50:23.454Z,1026.77
2017-06-18T07:51:32.345Z,1026.83
2017-06-18T07:52:41.649Z,1026.85
2017-06-18T07:53:50.903Z,1026.86
2017-06-18T07:54:59.813Z,1026.91
2017-06-18T07:56:09.029Z,1026.87
2017-06-18T07:57:18.249Z,1026.91
2017-06-18T07:58:27.144Z,1026.97
2017-06-18T07:59:36.052Z,1026.9
2017-06-18T08:00:45.300Z,1026.89
2017-06-18T08:01:54.197Z,1026.88
2017-06-18T08:03:03.093Z,1026.85
2017-06-18T08:04:11.983Z,1026.86
2017-06-18T08:05:20.873Z,1026.86
2017-06-18T08:06:29.766Z,1026.89
2017-06-18T08:07:38.654Z,1026.88
2017-06-18T08:08:47.547Z,1026.86
2017-06-18T08:09:56.438Z,1026.84
2017-06-18T08:11:05.334Z,1026.87
2017-06-18T08:12:14.229Z,1026.91
2017-06-18T08:13:23.447Z,1026.92
2017-06-18T08:14:32.339Z,1026.89
2017-06-18T08:15:41.531Z,1026.88
2017-06-18T08:16:50.422Z,1026.87
2017-06-18T08:17:59.313Z,1026.89
2017-06-18T08:19:08.548Z,1026.91
2017-06-18T08:20:17.439Z,1026.92
2017-06-18T08:21:26.633Z,1026.91
2017-06-18T08:22:35.526Z,1026.86
2017-06-18T08:23:44.417Z,1026.82
2017-06-18T08:24:53.337Z,1026.8
2017-06-18T08:26:02.558Z,1026.77
2017-06-18T08:27:11.553Z,1026.77
2017-06-18T08:28:20.445Z,1026.75
2017-06-18T08:29:29.339Z,1026.81
2017-06-18T08:30:38.563Z,1026.8
2017-06-18T08:31:47.454Z,1026.82
2017-06-18T08:32:56.348Z,1026.81
2017-06-18T08:34:05.570Z,1026.83
2017-06-18T08:35:14.463Z,1026.77
2017-06-18T08:36:23.683Z,1026.79
2017-06-18T08:37:32.574Z,1026.8
2017-06-18T08:38:41.468Z,1026.82
2017-06-18T08:39:50.362Z,1026.83
2017-06-18T08:40:59.265Z,1026.86
2017-06-18T08:42:08.161Z,1026.79
2017-06-18T08:43:17.054Z,1026.8
2017-06-18T08:44:26.369Z,1026.81
2017-06-18T08:45:35.261Z,1026.83
2017-06-18T08:46:44.158Z,1026.75
2017-06-18T08:47:53.057Z,1026.76
2017-06-18T08:49:01.958Z,1026.73
2017-06-18T08:50:11.431Z,1026.72
2017-06-18T08:51:20.329Z,1026.74
2017-06-18T08:52:29.550Z,1026.69
2017-06-18T08:53:38.769Z,1026.7
2017-06-18T08:54:47.660Z,1026.7
2017-06-18T08:55:56.653Z,1026.67
2017-06-18T08:57:05.549Z,1026.66
2017-06-18T08:58:14.772Z,1026.7
2017-06-18T08:59:23.667Z,1026.66
2017-06-18T09:00:32.563Z,1026.68
2017-06-18T09:01:41.611Z,1026.66
2017-06-18T09:02:50.507Z,1026.64
2017-06-18T09:03:59.410Z,1026.61
2017-06-18T09:05:08.300Z,1026.59
2017-06-18T09:06:17.193Z,1026.61
2017-06-18T09:07:26.562Z,1026.61
2017-06-18T09:08:35.781Z,1026.63
2017-06-18T09:09:44.676Z,1026.62
2017-06-18T09:10:53.893Z,1026.64
2017-06-18T09:12:02.788Z,1026.64
2017-06-18T09:13:12.022Z,1026.57
2017-06-18T09:14:20.913Z,1026.59
2017-06-18T09:15:30.127Z,1026.56
2017-06-18T09:16:39.022Z,1026.52
2017-06-18T09:17:47.920Z,1026.52
2017-06-18T09:18:57.461Z,1026.56
2017-06-18T09:20:06.358Z,1026.53
2017-06-18T09:21:15.255Z,1026.51
2017-06-18T09:22:24.148Z,1026.46
2017-06-18T09:23:33.366Z,1026.46
2017-06-18T09:24:42.407Z,1026.41
2017-06-18T09:25:51.952Z,1026.45
2017-06-18T09:27:00.844Z,1026.42
2017-06-18T09:28:10.060Z,1026.46
2017-06-18T09:29:18.950Z,1026.41
2017-06-18T09:30:28.167Z,1026.4
2017-06-18T09:31:37.074Z,1026.39
2017-06-18T09:32:45.968Z,1026.42
2017-06-18T09:33:54.863Z,1026.4
2017-06-18T09:35:03.756Z,1026.39
2017-06-18T09:36:13.399Z,1026.41
2017-06-18T09:37:22.945Z,1026.41
2017-06-18T09:38:31.846Z,1026.48
2017-06-18T09:39:41.062Z,1026.4
2017-06-18T09:40:50.277Z,1026.45
2017-06-18T09:41:59.174Z,1026.43
2017-06-18T09:43:08.067Z,1026.42
2017-06-18T09:44:16.964Z,1026.37
2017-06-18T09:45:25.856Z,1026.38
2017-06-18T09:46:34.748Z,1026.39
2017-06-18T09:47:43.639Z,1026.37
2017-06-18T09:48:52.859Z,1026.35
2017-06-18T09:50:02.078Z,1026.38
2017-06-18T09:51:10.975Z,1026.39
2017-06-18T09:52:20.203Z,1026.38
2017-06-18T09:53:29.522Z,1026.37
2017-06-18T09:54:38.415Z,1026.33
2017-06-18T09:55:47.310Z,1026.32
2017-06-18T09:56:56.204Z,1026.35
2017-06-18T09:58:05.428Z,1026.36
2017-06-18T09:59:14.617Z,1026.35
2017-06-18T10:00:23.833Z,1026.3
2017-06-18T10:01:32.729Z,1026.33
2017-06-18T10:02:41.675Z,1026.29
2017-06-18T10:03:50.572Z,1026.3
2017-06-18T10:04:59.619Z,1026.27
2017-06-18T10:06:09.181Z,1026.32
2017-06-18T10:07:18.074Z,1026.27
2017-06-18T10:08:27.619Z,1026.3
2017-06-18T10:09:37.165Z,1026.3
2017-06-18T10:10:46.062Z,1026.25
2017-06-18T10:11:55.280Z,1026.22
2017-06-18T10:13:04.497Z,1026.23
2017-06-18T10:14:13.394Z,1026.22
2017-06-18T10:15:22.286Z,1026.26
2017-06-18T10:16:31.386Z,1026.19
2017-06-18T10:17:40.287Z,1026.25
2017-06-18T10:18:49.182Z,1026.21
2017-06-18T10:19:58.074Z,1026.22
2017-06-18T10:21:07.634Z,1026.22
2017-06-18T10:22:16.533Z,1026.2
2017-06-18T10:23:25.428Z,1026.19
2017-06-18T10:24:34.321Z,1026.21
2017-06-18T10:25:43.214Z,1026.23
2017-06-18T10:26:52.110Z,1026.2
2017-06-18T10:28:01.600Z,1026.22
2017-06-18T10:29:10.492Z,1026.28
2017-06-18T10:30:19.439Z,1026.18
2017-06-18T10:31:28.331Z,1026.26
2017-06-18T10:32:37.226Z,1026.21
2017-06-18T10:33:46.221Z,1026.2
2017-06-18T10:34:55.117Z,1026.18
2017-06-18T10:36:04.012Z,1026.15
2017-06-18T10:37:13.236Z,1026.21
2017-06-18T10:38:22.128Z,1026.19
2017-06-18T10:39:31.169Z,1026.19
2017-06-18T10:40:40.389Z,1026.16
2017-06-18T10:41:49.620Z,1026.17
2017-06-18T10:42:58.519Z,1026.17
2017-06-18T10:44:07.759Z,1026.19
2017-06-18T10:45:16.956Z,1026.18
2017-06-18T10:46:25.856Z,1026.14
2017-06-18T10:47:35.077Z,1026.1
2017-06-18T10:48:43.972Z,1026.05
2017-06-18T10:49:52.864Z,1026.11
2017-06-18T10:51:02.138Z,1026.09
2017-06-18T10:52:11.034Z,1026.11
2017-06-18T10:53:20.256Z,1026.11
2017-06-18T10:54:29.184Z,1026.09
2017-06-18T10:55:38.089Z,1026.08
2017-06-18T10:56:47.136Z,1026.05
2017-06-18T10:57:56.033Z,1026.06
2017-06-18T10:59:04.928Z,1026.08
2017-06-18T11:00:14.163Z,1026.07
2017-06-18T11:01:23.385Z,1026.06
2017-06-18T11:02:32.385Z,1026.05
2017-06-18T11:03:41.280Z,1026.08
2017-06-18T11:04:50.176Z,1026.03
2017-06-18T11:05:59.393Z,1025.99
2017-06-18T11:07:08.341Z,1025.97
2017-06-18T11:08:18.042Z,1026.03
2017-06-18T11:09:26.939Z,1026.04
2017-06-18T11:10:35.838Z,1026
2017-06-18T11:11:45.060Z,1025.99
2017-06-18T11:12:53.957Z,1026
2017-06-18T11:14:02.853Z,1025.99
2017-06-18T11:15:11.759Z,1025.94
2017-06-18T11:16:20.993Z,1025.97
2017-06-18T11:17:29.891Z,1025.95
2017-06-18T11:18:38.784Z,1025.9
2017-06-18T11:19:47.831Z,1025.95
2017-06-18T11:20:57.044Z,1025.93
2017-06-18T11:22:07.254Z,1025.92
2017-06-18T11:23:16.478Z,1025.87
2017-06-18T11:24:25.376Z,1025.89
2017-06-18T11:25:34.382Z,1025.85
2017-06-18T11:26:43.279Z,1025.84
2017-06-18T11:27:52.181Z,1025.91
2017-06-18T11:29:01.096Z,1025.9
2017-06-18T11:30:10.019Z,1025.93
2017-06-18T11:31:19.133Z,1025.93
2017-06-18T11:32:28.069Z,1025.87
2017-06-18T11:33:36.966Z,1025.88
2017-06-18T11:34:45.862Z,1025.83
2017-06-18T11:35:54.759Z,1025.81
2017-06-18T11:37:03.870Z,1025.79
2017-06-18T11:38:13.095Z,1025.84
2017-06-18T11:39:22.053Z,1025.85
2017-06-18T11:40:30.947Z,1025.86
2017-06-18T11:41:40.171Z,1025.92
2017-06-18T11:42:49.219Z,1025.88
2017-06-18T11:43:58.440Z,1025.9
2017-06-18T11:45:07.335Z,1025.85
2017-06-18T11:46:16.302Z,1025.86
2017-06-18T11:47:25.529Z,1025.9
2017-06-18T11:48:34.527Z,1025.86
2017-06-18T11:49:43.426Z,1025.9
2017-06-18T11:50:52.344Z,1025.91
2017-06-18T11:52:01.252Z,1025.88
2017-06-18T11:53:10.477Z,1025.86
2017-06-18T11:54:19.851Z,1025.84
2017-06-18T11:55:28.748Z,1025.82
2017-06-18T11:56:37.646Z,1025.77
2017-06-18T11:57:46.925Z,1025.85
2017-06-18T11:58:55.829Z,1025.89
2017-06-18T12:00:05.068Z,1025.86
2017-06-18T12:01:14.301Z,1025.86
2017-06-18T12:02:23.240Z,1025.85
2017-06-18T12:03:32.140Z,1025.9
2017-06-18T12:04:41.041Z,1025.91
2017-06-18T12:05:50.523Z,1025.82
2017-06-18T12:06:59.782Z,1025.76
2017-06-18T12:08:09.030Z,1025.79
2017-06-18T12:09:17.929Z,1025.78
2017-06-18T12:10:27.479Z,1025.81
2017-06-18T12:11:36.381Z,1025.84
2017-06-18T12:12:45.627Z,1025.88
2017-06-18T12:13:54.530Z,1025.97
2017-06-18T12:15:03.476Z,1025.92
2017-06-18T12:16:12.703Z,1025.89
2017-06-18T12:17:21.605Z,1025.91
2017-06-18T12:18:30.569Z,1025.86
2017-06-18T12:19:39.503Z,1025.83
2017-06-18T12:20:48.753Z,1025.81
2017-06-18T12:21:57.982Z,1025.84
2017-06-18T12:23:07.728Z,1025.93
2017-06-18T12:24:17.020Z,1025.91
2017-06-18T12:25:25.930Z,1025.8
2017-06-18T12:26:34.840Z,1025.89
2017-06-18T12:27:43.747Z,1025.92
2017-06-18T12:28:52.712Z,1025.98
2017-06-18T12:30:01.624Z,1025.84
2017-06-18T12:31:10.534Z,1025.85
2017-06-18T12:32:19.448Z,1025.82
2017-06-18T12:33:29.045Z,1025.82
2017-06-18T12:34:38.257Z,1025.77
2017-06-18T12:35:47.182Z,1025.75
2017-06-18T12:36:56.452Z,1025.78
2017-06-18T12:38:05.421Z,1025.76
2017-06-18T12:39:14.349Z,1025.87
2017-06-18T12:40:23.877Z,1025.9
2017-06-18T12:41:33.165Z,1025.92
2017-06-18T12:42:42.105Z,1025.9
2017-06-18T12:43:51.011Z,1025.7
2017-06-18T12:44:59.916Z,1025.68
2017-06-18T12:46:08.823Z,1025.7
2017-06-18T12:47:18.377Z,1025.69
2017-06-18T12:48:27.279Z,1025.67
2017-06-18T12:49:36.196Z,1025.7
2017-06-18T12:50:45.104Z,1025.86
2017-06-18T12:51:54.060Z,1025.84
2017-06-18T12:53:03.309Z,1025.63
2017-06-18T12:54:12.216Z,1025.76
2017-06-18T12:55:21.450Z,1025.82
2017-06-18T12:56:30.386Z,1025.76
2017-06-18T12:57:39.293Z,1025.77
2017-06-18T12:58:48.207Z,1025.81
2017-06-18T12:59:57.113Z,1025.74
2017-06-18T13:01:06.059Z,1025.83
2017-06-18T13:02:15.013Z,1025.86
2017-06-18T13:03:25.177Z,1025.78
2017-06-18T13:04:34.098Z,1025.79
2017-06-18T13:05:43.006Z,1025.81
2017-06-18T13:06:51.917Z,1025.79
2017-06-18T13:08:00.832Z,1025.78
2017-06-18T13:09:10.050Z,1025.8
2017-06-18T13:10:18.965Z,1025.79
2017-06-18T13:11:27.879Z,1025.77
2017-06-18T13:12:37.114Z,1025.72
2017-06-18T13:13:46.030Z,1025.77
2017-06-18T13:14:55.014Z,1025.7
2017-06-18T13:16:03.925Z,1025.7
2017-06-18T13:17:13.162Z,1025.68
2017-06-18T13:18:22.075Z,1025.5
2017-06-18T13:19:30.996Z,1025.43
2017-06-18T13:20:40.384Z,1025.46
2017-06-18T13:21:49.296Z,1025.47
2017-06-18T13:22:58.217Z,1025.41
2017-06-18T13:24:07.457Z,1025.47
2017-06-18T13:25:16.700Z,1025.42
2017-06-18T13:26:25.760Z,1025.41
2017-06-18T13:27:34.670Z,1025.4
2017-06-18T13:28:43.904Z,1025.46
2017-06-18T13:29:52.813Z,1025.51
2017-06-18T13:31:01.725Z,1025.59
2017-06-18T13:32:10.981Z,1025.63
2017-06-18T13:33:19.910Z,1025.59
2017-06-18T13:34:28.821Z,1025.55
2017-06-18T13:35:37.730Z,1025.64
2017-06-18T13:36:46.643Z,1025.65
2017-06-18T13:37:55.883Z,1025.66
2017-06-18T13:39:05.134Z,1025.67
2017-06-18T13:40:14.374Z,1025.64
2017-06-18T13:41:23.282Z,1025.64
2017-06-18T13:42:32.295Z,1025.69
2017-06-18T13:43:41.554Z,1025.35
2017-06-18T13:44:50.798Z,1025.38
2017-06-18T13:45:59.714Z,1025.68
2017-06-18T13:47:08.633Z,1025.35
2017-06-18T13:48:17.551Z,1025.41
2017-06-18T13:49:26.564Z,1025.67
2017-06-18T13:50:35.473Z,1025.62
2017-06-18T13:51:44.427Z,1025.28
2017-06-18T13:52:53.688Z,1025.31
2017-06-18T13:54:02.597Z,1025.33
2017-06-18T13:55:11.558Z,1025.34
2017-06-18T13:56:20.797Z,1025.28
2017-06-18T13:57:29.715Z,1025.31
2017-06-18T13:58:38.629Z,1025.32
2017-06-18T13:59:47.541Z,1025.27